sensor_id;sensor_type;location;lat;lon;timestamp;P1;durP1;ratioP1;P2;durP2;ratioP2
16922;SDS011;8578;50.938;13.556;2022-12-20T00:00:41;15.53;;;7.70;;
16922;SDS011;8578;50.938;13.556;2022-12-20T00:03:08;17.53;;;7.87;;
16922;SDS011;8578;50.938;13.556;2022-12-20T00:05:38;17.00;;;7.60;;
16922;SDS011;8578;50.938;13.556;2022-12-20T00:08:05;14.27;;;6.27;;
16922;SDS011;8578;50.938;13.556;2022-12-20T00:10:34;18.43;;;7.40;;
16922;SDS011;8578;50.938;13.556;2022-12-20T00:13:01;13.80;;;7.27;;
16922;SDS011;8578;50.938;13.556;2022-12-20T00:15:29;15.93;;;7.70;;
16922;SDS011;8578;50.938;13.556;2022-12-20T00:17:56;16.53;;;7.07;;
16922;SDS011;8578;50.938;13.556;2022-12-20T00:20:24;13.67;;;6.30;;
16922;SDS011;8578;50.938;13.556;2022-12-20T00:22:53;15.10;;;6.40;;
16922;SDS011;8578;50.938;13.556;2022-12-20T00:25:21;15.80;;;6.40;;
16922;SDS011;8578;50.938;13.556;2022-12-20T00:27:48;17.77;;;7.13;;
16922;SDS011;8578;50.938;13.556;2022-12-20T00:30:16;14.30;;;6.07;;
16922;SDS011;8578;50.938;13.556;2022-12-20T00:32:44;15.17;;;6.47;;
16922;SDS011;8578;50.938;13.556;2022-12-20T00:35:12;14.97;;;6.53;;
16922;SDS011;8578;50.938;13.556;2022-12-20T00:37:40;13.13;;;6.43;;
16922;SDS011;8578;50.938;13.556;2022-12-20T00:40:09;14.70;;;6.10;;
16922;SDS011;8578;50.938;13.556;2022-12-20T00:42:36;12.60;;;6.43;;
16922;SDS011;8578;50.938;13.556;2022-12-20T00:45:04;13.33;;;6.13;;
16922;SDS011;8578;50.938;13.556;2022-12-20T00:47:32;14.97;;;6.30;;
16922;SDS011;8578;50.938;13.556;2022-12-20T00:50:00;13.77;;;6.37;;
16922;SDS011;8578;50.938;13.556;2022-12-20T00:52:27;16.17;;;6.23;;
16922;SDS011;8578;50.938;13.556;2022-12-20T00:54:55;14.53;;;5.90;;
16922;SDS011;8578;50.938;13.556;2022-12-20T00:57:24;15.73;;;6.07;;
16922;SDS011;8578;50.938;13.556;2022-12-20T00:59:51;14.40;;;5.77;;
16922;SDS011;8578;50.938;13.556;2022-12-20T01:02:19;14.60;;;5.77;;
16922;SDS011;8578;50.938;13.556;2022-12-20T01:04:47;13.37;;;6.27;;
16922;SDS011;8578;50.938;13.556;2022-12-20T01:07:15;12.77;;;5.63;;
16922;SDS011;8578;50.938;13.556;2022-12-20T01:09:42;16.87;;;6.13;;
16922;SDS011;8578;50.938;13.556;2022-12-20T01:12:10;12.60;;;5.73;;
16922;SDS011;8578;50.938;13.556;2022-12-20T01:14:39;11.43;;;5.63;;
16922;SDS011;8578;50.938;13.556;2022-12-20T01:17:06;12.20;;;5.40;;
16922;SDS011;8578;50.938;13.556;2022-12-20T01:19:34;11.03;;;5.53;;
16922;SDS011;8578;50.938;13.556;2022-12-20T01:22:02;11.93;;;5.70;;
16922;SDS011;8578;50.938;13.556;2022-12-20T01:24:29;10.63;;;5.40;;
16922;SDS011;8578;50.938;13.556;2022-12-20T01:26:57;12.07;;;5.43;;
16922;SDS011;8578;50.938;13.556;2022-12-20T01:29:24;13.13;;;5.17;;
16922;SDS011;8578;50.938;13.556;2022-12-20T01:31:53;12.03;;;5.87;;
16922;SDS011;8578;50.938;13.556;2022-12-20T01:34:20;12.93;;;5.53;;
16922;SDS011;8578;50.938;13.556;2022-12-20T01:36:48;15.87;;;6.10;;
16922;SDS011;8578;50.938;13.556;2022-12-20T01:39:16;11.83;;;5.43;;
16922;SDS011;8578;50.938;13.556;2022-12-20T01:41:44;11.93;;;5.73;;
16922;SDS011;8578;50.938;13.556;2022-12-20T01:46:59;11.10;;;5.10;;
16922;SDS011;8578;50.938;13.556;2022-12-20T01:49:27;15.33;;;6.30;;
16922;SDS011;8578;50.938;13.556;2022-12-20T01:51:57;12.60;;;5.93;;
16922;SDS011;8578;50.938;13.556;2022-12-20T01:54:26;12.07;;;5.77;;
16922;SDS011;8578;50.938;13.556;2022-12-20T01:56:56;13.87;;;6.00;;
16922;SDS011;8578;50.938;13.556;2022-12-20T01:59:26;13.23;;;5.97;;
16922;SDS011;8578;50.938;13.556;2022-12-20T02:01:55;11.93;;;5.90;;
16922;SDS011;8578;50.938;13.556;2022-12-20T02:04:26;11.23;;;5.43;;
16922;SDS011;8578;50.938;13.556;2022-12-20T02:06:53;12.70;;;5.87;;
16922;SDS011;8578;50.938;13.556;2022-12-20T02:09:21;11.73;;;5.40;;
16922;SDS011;8578;50.938;13.556;2022-12-20T02:11:52;15.57;;;6.17;;
16922;SDS011;8578;50.938;13.556;2022-12-20T02:14:28;14.20;;;5.13;;
16922;SDS011;8578;50.938;13.556;2022-12-20T02:17:00;14.43;;;6.20;;
16922;SDS011;8578;50.938;13.556;2022-12-20T02:19:53;14.97;;;6.10;;
16922;SDS011;8578;50.938;13.556;2022-12-20T02:22:27;13.23;;;5.43;;
16922;SDS011;8578;50.938;13.556;2022-12-20T02:25:03;14.63;;;6.40;;
16922;SDS011;8578;50.938;13.556;2022-12-20T02:27:44;14.83;;;6.43;;
16922;SDS011;8578;50.938;13.556;2022-12-20T02:30:16;15.03;;;6.47;;
16922;SDS011;8578;50.938;13.556;2022-12-20T02:32:47;16.37;;;6.50;;
16922;SDS011;8578;50.938;13.556;2022-12-20T02:35:18;16.33;;;6.77;;
16922;SDS011;8578;50.938;13.556;2022-12-20T02:37:47;14.10;;;6.57;;
16922;SDS011;8578;50.938;13.556;2022-12-20T02:40:16;14.90;;;6.93;;
16922;SDS011;8578;50.938;13.556;2022-12-20T02:42:46;15.23;;;7.13;;
16922;SDS011;8578;50.938;13.556;2022-12-20T02:45:16;13.03;;;5.90;;
16922;SDS011;8578;50.938;13.556;2022-12-20T02:47:47;13.63;;;6.33;;
16922;SDS011;8578;50.938;13.556;2022-12-20T02:50:16;15.40;;;5.90;;
16922;SDS011;8578;50.938;13.556;2022-12-20T02:52:44;15.47;;;6.30;;
16922;SDS011;8578;50.938;13.556;2022-12-20T02:55:12;12.70;;;5.90;;
16922;SDS011;8578;50.938;13.556;2022-12-20T02:57:42;14.53;;;6.20;;
16922;SDS011;8578;50.938;13.556;2022-12-20T03:00:13;15.27;;;7.10;;
16922;SDS011;8578;50.938;13.556;2022-12-20T03:02:43;15.70;;;6.80;;
16922;SDS011;8578;50.938;13.556;2022-12-20T03:05:29;14.07;;;6.30;;
16922;SDS011;8578;50.938;13.556;2022-12-20T03:07:57;14.60;;;6.07;;
16922;SDS011;8578;50.938;13.556;2022-12-20T03:10:24;16.23;;;5.87;;
16922;SDS011;8578;50.938;13.556;2022-12-20T03:12:52;14.57;;;6.30;;
16922;SDS011;8578;50.938;13.556;2022-12-20T03:15:20;13.63;;;5.77;;
16922;SDS011;8578;50.938;13.556;2022-12-20T03:17:52;15.20;;;6.43;;
16922;SDS011;8578;50.938;13.556;2022-12-20T03:20:21;13.23;;;6.20;;
16922;SDS011;8578;50.938;13.556;2022-12-20T03:22:48;14.07;;;5.80;;
16922;SDS011;8578;50.938;13.556;2022-12-20T03:25:16;13.37;;;6.33;;
16922;SDS011;8578;50.938;13.556;2022-12-20T03:27:44;15.80;;;6.40;;
16922;SDS011;8578;50.938;13.556;2022-12-20T03:30:13;15.33;;;6.87;;
16922;SDS011;8578;50.938;13.556;2022-12-20T03:32:40;15.17;;;6.80;;
16922;SDS011;8578;50.938;13.556;2022-12-20T03:35:11;13.97;;;6.43;;
16922;SDS011;8578;50.938;13.556;2022-12-20T03:37:39;14.60;;;6.57;;
16922;SDS011;8578;50.938;13.556;2022-12-20T03:40:09;17.20;;;7.07;;
16922;SDS011;8578;50.938;13.556;2022-12-20T03:42:37;15.23;;;6.27;;
16922;SDS011;8578;50.938;13.556;2022-12-20T03:45:05;17.43;;;6.77;;
16922;SDS011;8578;50.938;13.556;2022-12-20T03:47:33;14.50;;;6.40;;
16922;SDS011;8578;50.938;13.556;2022-12-20T03:50:01;18.90;;;8.00;;
16922;SDS011;8578;50.938;13.556;2022-12-20T03:52:34;13.93;;;6.27;;
16922;SDS011;8578;50.938;13.556;2022-12-20T03:55:03;18.73;;;7.50;;
16922;SDS011;8578;50.938;13.556;2022-12-20T03:57:37;14.50;;;6.60;;
16922;SDS011;8578;50.938;13.556;2022-12-20T04:00:15;14.93;;;6.13;;
16922;SDS011;8578;50.938;13.556;2022-12-20T04:02:45;13.80;;;6.13;;
16922;SDS011;8578;50.938;13.556;2022-12-20T04:05:14;12.70;;;5.60;;
16922;SDS011;8578;50.938;13.556;2022-12-20T04:07:43;11.70;;;6.10;;
16922;SDS011;8578;50.938;13.556;2022-12-20T04:10:11;15.73;;;6.70;;
16922;SDS011;8578;50.938;13.556;2022-12-20T04:12:40;15.00;;;5.80;;
16922;SDS011;8578;50.938;13.556;2022-12-20T04:15:09;14.13;;;6.50;;
16922;SDS011;8578;50.938;13.556;2022-12-20T04:17:39;16.47;;;7.13;;
16922;SDS011;8578;50.938;13.556;2022-12-20T04:20:08;16.07;;;6.87;;
16922;SDS011;8578;50.938;13.556;2022-12-20T04:22:53;16.90;;;6.00;;
16922;SDS011;8578;50.938;13.556;2022-12-20T04:25:21;12.40;;;5.77;;
16922;SDS011;8578;50.938;13.556;2022-12-20T04:27:49;16.23;;;6.93;;
16922;SDS011;8578;50.938;13.556;2022-12-20T04:30:17;11.50;;;5.37;;
16922;SDS011;8578;50.938;13.556;2022-12-20T04:32:44;13.80;;;5.80;;
16922;SDS011;8578;50.938;13.556;2022-12-20T04:35:12;13.77;;;6.03;;
16922;SDS011;8578;50.938;13.556;2022-12-20T04:37:41;13.87;;;5.77;;
16922;SDS011;8578;50.938;13.556;2022-12-20T04:40:11;13.00;;;5.50;;
16922;SDS011;8578;50.938;13.556;2022-12-20T04:42:45;10.63;;;4.57;;
16922;SDS011;8578;50.938;13.556;2022-12-20T04:45:14;12.43;;;5.63;;
16922;SDS011;8578;50.938;13.556;2022-12-20T04:47:42;10.83;;;5.80;;
16922;SDS011;8578;50.938;13.556;2022-12-20T04:50:12;14.40;;;5.97;;
16922;SDS011;8578;50.938;13.556;2022-12-20T04:52:41;11.77;;;5.43;;
16922;SDS011;8578;50.938;13.556;2022-12-20T04:55:29;10.77;;;5.20;;
16922;SDS011;8578;50.938;13.556;2022-12-20T04:57:57;11.40;;;4.80;;
16922;SDS011;8578;50.938;13.556;2022-12-20T05:00:33;11.70;;;5.17;;
16922;SDS011;8578;50.938;13.556;2022-12-20T05:03:10;11.10;;;5.50;;
16922;SDS011;8578;50.938;13.556;2022-12-20T05:05:38;11.23;;;5.87;;
16922;SDS011;8578;50.938;13.556;2022-12-20T05:08:06;39.53;;;15.60;;
16922;SDS011;8578;50.938;13.556;2022-12-20T05:10:35;25.57;;;10.60;;
16922;SDS011;8578;50.938;13.556;2022-12-20T05:13:04;16.70;;;7.77;;
16922;SDS011;8578;50.938;13.556;2022-12-20T05:15:39;30.43;;;12.63;;
16922;SDS011;8578;50.938;13.556;2022-12-20T05:18:09;13.83;;;6.50;;
16922;SDS011;8578;50.938;13.556;2022-12-20T05:20:43;31.00;;;14.33;;
16922;SDS011;8578;50.938;13.556;2022-12-20T05:23:11;27.80;;;12.47;;
16922;SDS011;8578;50.938;13.556;2022-12-20T05:26:08;46.90;;;17.43;;
16922;SDS011;8578;50.938;13.556;2022-12-20T05:28:47;15.70;;;7.77;;
16922;SDS011;8578;50.938;13.556;2022-12-20T05:31:15;15.40;;;6.60;;
16922;SDS011;8578;50.938;13.556;2022-12-20T05:33:42;16.90;;;7.77;;
16922;SDS011;8578;50.938;13.556;2022-12-20T05:36:10;16.50;;;7.07;;
16922;SDS011;8578;50.938;13.556;2022-12-20T05:38:38;14.33;;;6.73;;
16922;SDS011;8578;50.938;13.556;2022-12-20T05:41:13;15.33;;;6.80;;
16922;SDS011;8578;50.938;13.556;2022-12-20T05:43:44;14.57;;;6.90;;
16922;SDS011;8578;50.938;13.556;2022-12-20T05:46:12;15.60;;;6.87;;
16922;SDS011;8578;50.938;13.556;2022-12-20T05:48:51;16.63;;;7.00;;
16922;SDS011;8578;50.938;13.556;2022-12-20T05:51:19;17.67;;;7.30;;
16922;SDS011;8578;50.938;13.556;2022-12-20T05:53:55;17.03;;;7.53;;
16922;SDS011;8578;50.938;13.556;2022-12-20T05:56:42;16.73;;;7.43;;
16922;SDS011;8578;50.938;13.556;2022-12-20T05:59:11;16.57;;;7.30;;
16922;SDS011;8578;50.938;13.556;2022-12-20T06:01:38;13.83;;;6.77;;
16922;SDS011;8578;50.938;13.556;2022-12-20T06:04:06;14.73;;;6.57;;
16922;SDS011;8578;50.938;13.556;2022-12-20T06:06:34;13.90;;;6.77;;
16922;SDS011;8578;50.938;13.556;2022-12-20T06:09:01;14.57;;;7.03;;
16922;SDS011;8578;50.938;13.556;2022-12-20T06:11:36;15.77;;;7.07;;
16922;SDS011;8578;50.938;13.556;2022-12-20T06:14:09;17.07;;;6.77;;
16922;SDS011;8578;50.938;13.556;2022-12-20T06:16:42;16.90;;;7.03;;
16922;SDS011;8578;50.938;13.556;2022-12-20T06:19:10;14.57;;;6.83;;
16922;SDS011;8578;50.938;13.556;2022-12-20T06:21:47;16.70;;;7.43;;
16922;SDS011;8578;50.938;13.556;2022-12-20T06:24:17;14.27;;;6.30;;
16922;SDS011;8578;50.938;13.556;2022-12-20T06:26:46;16.40;;;6.80;;
16922;SDS011;8578;50.938;13.556;2022-12-20T06:29:17;15.23;;;7.27;;
16922;SDS011;8578;50.938;13.556;2022-12-20T06:31:50;13.83;;;6.53;;
16922;SDS011;8578;50.938;13.556;2022-12-20T06:34:18;15.47;;;7.23;;
16922;SDS011;8578;50.938;13.556;2022-12-20T06:36:46;15.93;;;6.80;;
16922;SDS011;8578;50.938;13.556;2022-12-20T06:39:18;13.80;;;6.37;;
16922;SDS011;8578;50.938;13.556;2022-12-20T06:41:55;17.87;;;6.87;;
16922;SDS011;8578;50.938;13.556;2022-12-20T06:44:25;14.70;;;6.60;;
16922;SDS011;8578;50.938;13.556;2022-12-20T06:46:53;13.57;;;6.97;;
16922;SDS011;8578;50.938;13.556;2022-12-20T06:49:20;16.30;;;7.03;;
16922;SDS011;8578;50.938;13.556;2022-12-20T06:51:49;15.20;;;6.80;;
16922;SDS011;8578;50.938;13.556;2022-12-20T06:54:21;13.37;;;6.43;;
16922;SDS011;8578;50.938;13.556;2022-12-20T06:56:49;13.63;;;6.20;;
16922;SDS011;8578;50.938;13.556;2022-12-20T06:59:18;15.00;;;6.67;;
16922;SDS011;8578;50.938;13.556;2022-12-20T07:01:46;11.93;;;6.00;;
16922;SDS011;8578;50.938;13.556;2022-12-20T07:04:14;13.90;;;6.70;;
16922;SDS011;8578;50.938;13.556;2022-12-20T07:06:42;12.77;;;6.07;;
16922;SDS011;8578;50.938;13.556;2022-12-20T07:09:09;13.80;;;6.20;;
16922;SDS011;8578;50.938;13.556;2022-12-20T07:11:37;14.33;;;6.90;;
16922;SDS011;8578;50.938;13.556;2022-12-20T07:14:05;16.23;;;6.43;;
16922;SDS011;8578;50.938;13.556;2022-12-20T07:16:32;12.47;;;6.23;;
16922;SDS011;8578;50.938;13.556;2022-12-20T07:19:01;13.23;;;6.50;;
16922;SDS011;8578;50.938;13.556;2022-12-20T07:21:29;11.03;;;5.57;;
16922;SDS011;8578;50.938;13.556;2022-12-20T07:23:57;15.00;;;6.90;;
16922;SDS011;8578;50.938;13.556;2022-12-20T07:26:24;13.03;;;6.17;;
16922;SDS011;8578;50.938;13.556;2022-12-20T07:28:52;14.43;;;6.70;;
16922;SDS011;8578;50.938;13.556;2022-12-20T07:31:19;13.67;;;6.70;;
16922;SDS011;8578;50.938;13.556;2022-12-20T07:33:47;14.73;;;6.30;;
16922;SDS011;8578;50.938;13.556;2022-12-20T07:36:16;13.20;;;6.37;;
16922;SDS011;8578;50.938;13.556;2022-12-20T07:38:44;12.77;;;6.17;;
16922;SDS011;8578;50.938;13.556;2022-12-20T07:41:12;12.10;;;6.50;;
16922;SDS011;8578;50.938;13.556;2022-12-20T07:43:41;11.90;;;5.87;;
16922;SDS011;8578;50.938;13.556;2022-12-20T07:46:09;13.93;;;6.87;;
16922;SDS011;8578;50.938;13.556;2022-12-20T07:48:39;13.40;;;6.53;;
16922;SDS011;8578;50.938;13.556;2022-12-20T07:51:08;17.60;;;7.30;;
16922;SDS011;8578;50.938;13.556;2022-12-20T07:53:38;14.23;;;7.10;;
16922;SDS011;8578;50.938;13.556;2022-12-20T07:56:06;15.17;;;6.53;;
16922;SDS011;8578;50.938;13.556;2022-12-20T07:58:35;14.10;;;6.53;;
16922;SDS011;8578;50.938;13.556;2022-12-20T08:01:03;14.80;;;7.00;;
16922;SDS011;8578;50.938;13.556;2022-12-20T08:03:32;14.40;;;6.50;;
16922;SDS011;8578;50.938;13.556;2022-12-20T08:06:02;13.83;;;6.47;;
16922;SDS011;8578;50.938;13.556;2022-12-20T08:08:31;11.73;;;6.47;;
16922;SDS011;8578;50.938;13.556;2022-12-20T08:11:02;15.50;;;6.87;;
16922;SDS011;8578;50.938;13.556;2022-12-20T08:13:30;16.40;;;7.10;;
16922;SDS011;8578;50.938;13.556;2022-12-20T08:15:58;22.53;;;10.33;;
16922;SDS011;8578;50.938;13.556;2022-12-20T08:18:26;22.93;;;9.80;;
16922;SDS011;8578;50.938;13.556;2022-12-20T08:20:54;14.70;;;6.73;;
16922;SDS011;8578;50.938;13.556;2022-12-20T08:23:21;17.40;;;7.13;;
16922;SDS011;8578;50.938;13.556;2022-12-20T08:25:49;23.83;;;10.53;;
16922;SDS011;8578;50.938;13.556;2022-12-20T08:28:18;19.23;;;8.90;;
16922;SDS011;8578;50.938;13.556;2022-12-20T08:30:45;19.77;;;8.90;;
16922;SDS011;8578;50.938;13.556;2022-12-20T08:33:13;21.60;;;9.13;;
16922;SDS011;8578;50.938;13.556;2022-12-20T08:35:41;21.33;;;8.50;;
16922;SDS011;8578;50.938;13.556;2022-12-20T08:38:08;18.13;;;8.80;;
16922;SDS011;8578;50.938;13.556;2022-12-20T08:40:35;18.40;;;8.67;;
16922;SDS011;8578;50.938;13.556;2022-12-20T08:43:03;15.97;;;8.30;;
16922;SDS011;8578;50.938;13.556;2022-12-20T08:45:37;21.63;;;8.97;;
16922;SDS011;8578;50.938;13.556;2022-12-20T08:48:04;25.30;;;10.93;;
16922;SDS011;8578;50.938;13.556;2022-12-20T08:50:32;20.50;;;9.37;;
16922;SDS011;8578;50.938;13.556;2022-12-20T08:53:01;20.87;;;10.63;;
16922;SDS011;8578;50.938;13.556;2022-12-20T08:55:28;19.63;;;8.70;;
16922;SDS011;8578;50.938;13.556;2022-12-20T08:57:56;17.90;;;8.07;;
16922;SDS011;8578;50.938;13.556;2022-12-20T09:00:23;16.10;;;8.20;;
16922;SDS011;8578;50.938;13.556;2022-12-20T09:02:53;18.37;;;8.03;;
16922;SDS011;8578;50.938;13.556;2022-12-20T09:05:21;19.10;;;9.47;;
16922;SDS011;8578;50.938;13.556;2022-12-20T09:07:48;17.97;;;8.93;;
16922;SDS011;8578;50.938;13.556;2022-12-20T09:10:16;17.43;;;9.03;;
16922;SDS011;8578;50.938;13.556;2022-12-20T09:12:44;19.23;;;8.77;;
16922;SDS011;8578;50.938;13.556;2022-12-20T09:15:11;16.93;;;8.07;;
16922;SDS011;8578;50.938;13.556;2022-12-20T09:17:39;20.47;;;8.43;;
16922;SDS011;8578;50.938;13.556;2022-12-20T09:20:08;17.13;;;8.10;;
16922;SDS011;8578;50.938;13.556;2022-12-20T09:22:36;24.80;;;8.70;;
16922;SDS011;8578;50.938;13.556;2022-12-20T09:25:03;19.30;;;8.50;;
16922;SDS011;8578;50.938;13.556;2022-12-20T09:27:32;16.03;;;7.70;;
16922;SDS011;8578;50.938;13.556;2022-12-20T09:29:59;19.60;;;8.37;;
16922;SDS011;8578;50.938;13.556;2022-12-20T09:32:27;18.87;;;9.00;;
16922;SDS011;8578;50.938;13.556;2022-12-20T09:34:54;17.80;;;7.80;;
16922;SDS011;8578;50.938;13.556;2022-12-20T09:37:23;16.77;;;8.80;;
16922;SDS011;8578;50.938;13.556;2022-12-20T09:39:51;19.77;;;9.20;;
16922;SDS011;8578;50.938;13.556;2022-12-20T09:42:18;22.07;;;9.70;;
16922;SDS011;8578;50.938;13.556;2022-12-20T09:44:48;18.23;;;9.13;;
16922;SDS011;8578;50.938;13.556;2022-12-20T09:47:16;18.63;;;9.23;;
16922;SDS011;8578;50.938;13.556;2022-12-20T09:49:46;19.37;;;9.17;;
16922;SDS011;8578;50.938;13.556;2022-12-20T09:52:26;22.20;;;9.57;;
16922;SDS011;8578;50.938;13.556;2022-12-20T09:54:58;19.27;;;9.57;;
16922;SDS011;8578;50.938;13.556;2022-12-20T09:57:29;19.33;;;8.73;;
16922;SDS011;8578;50.938;13.556;2022-12-20T09:59:59;20.80;;;9.60;;
16922;SDS011;8578;50.938;13.556;2022-12-20T10:02:29;17.53;;;8.80;;
16922;SDS011;8578;50.938;13.556;2022-12-20T10:05:20;22.30;;;9.70;;
16922;SDS011;8578;50.938;13.556;2022-12-20T10:07:52;23.07;;;9.47;;
16922;SDS011;8578;50.938;13.556;2022-12-20T10:10:36;19.63;;;9.20;;
16922;SDS011;8578;50.938;13.556;2022-12-20T10:13:09;19.97;;;9.27;;
16922;SDS011;8578;50.938;13.556;2022-12-20T10:15:42;21.37;;;9.43;;
16922;SDS011;8578;50.938;13.556;2022-12-20T10:18:16;22.90;;;10.00;;
16922;SDS011;8578;50.938;13.556;2022-12-20T10:20:51;25.83;;;10.07;;
16922;SDS011;8578;50.938;13.556;2022-12-20T10:23:26;21.40;;;10.57;;
16922;SDS011;8578;50.938;13.556;2022-12-20T10:25:59;24.10;;;10.43;;
16922;SDS011;8578;50.938;13.556;2022-12-20T10:28:27;20.93;;;10.57;;
16922;SDS011;8578;50.938;13.556;2022-12-20T10:30:57;24.07;;;10.87;;
16922;SDS011;8578;50.938;13.556;2022-12-20T10:33:25;25.37;;;11.57;;
16922;SDS011;8578;50.938;13.556;2022-12-20T10:35:53;26.20;;;10.93;;
16922;SDS011;8578;50.938;13.556;2022-12-20T10:38:21;24.87;;;11.33;;
16922;SDS011;8578;50.938;13.556;2022-12-20T10:40:59;20.70;;;10.83;;
16922;SDS011;8578;50.938;13.556;2022-12-20T10:43:48;24.97;;;11.33;;
16922;SDS011;8578;50.938;13.556;2022-12-20T10:46:16;23.83;;;10.77;;
16922;SDS011;8578;50.938;13.556;2022-12-20T10:48:44;22.83;;;10.17;;
16922;SDS011;8578;50.938;13.556;2022-12-20T10:51:13;23.90;;;10.40;;
16922;SDS011;8578;50.938;13.556;2022-12-20T10:53:49;20.80;;;9.73;;
16922;SDS011;8578;50.938;13.556;2022-12-20T10:56:19;22.37;;;10.40;;
16922;SDS011;8578;50.938;13.556;2022-12-20T10:58:51;21.37;;;10.03;;
16922;SDS011;8578;50.938;13.556;2022-12-20T11:01:19;21.67;;;9.93;;
16922;SDS011;8578;50.938;13.556;2022-12-20T11:03:52;21.97;;;10.37;;
16922;SDS011;8578;50.938;13.556;2022-12-20T11:06:21;22.13;;;10.23;;
16922;SDS011;8578;50.938;13.556;2022-12-20T11:08:51;26.93;;;11.73;;
16922;SDS011;8578;50.938;13.556;2022-12-20T11:11:27;21.40;;;9.90;;
16922;SDS011;8578;50.938;13.556;2022-12-20T11:13:55;22.93;;;10.50;;
16922;SDS011;8578;50.938;13.556;2022-12-20T11:16:39;21.13;;;10.10;;
16922;SDS011;8578;50.938;13.556;2022-12-20T11:19:14;24.93;;;11.00;;
16922;SDS011;8578;50.938;13.556;2022-12-20T11:21:51;24.90;;;10.70;;
16922;SDS011;8578;50.938;13.556;2022-12-20T11:24:24;26.30;;;11.93;;
16922;SDS011;8578;50.938;13.556;2022-12-20T11:27:08;25.97;;;10.83;;
16922;SDS011;8578;50.938;13.556;2022-12-20T11:32:30;16.53;;;8.70;;
16922;SDS011;8578;50.938;13.556;2022-12-20T11:35:00;20.17;;;9.43;;
16922;SDS011;8578;50.938;13.556;2022-12-20T11:37:30;22.10;;;10.07;;
16922;SDS011;8578;50.938;13.556;2022-12-20T11:40:05;26.57;;;11.03;;
16922;SDS011;8578;50.938;13.556;2022-12-20T11:42:41;35.53;;;12.97;;
16922;SDS011;8578;50.938;13.556;2022-12-20T11:45:14;19.50;;;9.10;;
16922;SDS011;8578;50.938;13.556;2022-12-20T11:50:39;17.03;;;8.47;;
16922;SDS011;8578;50.938;13.556;2022-12-20T11:53:11;16.83;;;8.03;;
16922;SDS011;8578;50.938;13.556;2022-12-20T11:55:40;19.30;;;8.83;;
16922;SDS011;8578;50.938;13.556;2022-12-20T11:58:12;20.77;;;9.27;;
16922;SDS011;8578;50.938;13.556;2022-12-20T12:00:46;19.37;;;8.83;;
16922;SDS011;8578;50.938;13.556;2022-12-20T12:03:17;21.53;;;9.87;;
16922;SDS011;8578;50.938;13.556;2022-12-20T12:05:49;20.93;;;9.37;;
16922;SDS011;8578;50.938;13.556;2022-12-20T12:08:20;24.50;;;10.33;;
16922;SDS011;8578;50.938;13.556;2022-12-20T12:10:50;20.93;;;9.37;;
16922;SDS011;8578;50.938;13.556;2022-12-20T12:13:22;19.33;;;8.80;;
16922;SDS011;8578;50.938;13.556;2022-12-20T12:15:52;20.03;;;9.17;;
16922;SDS011;8578;50.938;13.556;2022-12-20T12:18:23;20.60;;;9.17;;
16922;SDS011;8578;50.938;13.556;2022-12-20T12:20:51;20.17;;;8.87;;
16922;SDS011;8578;50.938;13.556;2022-12-20T12:23:21;19.53;;;9.13;;
16922;SDS011;8578;50.938;13.556;2022-12-20T12:25:50;20.43;;;8.90;;
16922;SDS011;8578;50.938;13.556;2022-12-20T12:28:18;22.37;;;8.70;;
16922;SDS011;8578;50.938;13.556;2022-12-20T12:30:50;20.97;;;9.40;;
16922;SDS011;8578;50.938;13.556;2022-12-20T12:33:21;25.00;;;10.43;;
16922;SDS011;8578;50.938;13.556;2022-12-20T12:35:54;18.27;;;8.23;;
16922;SDS011;8578;50.938;13.556;2022-12-20T12:38:34;16.23;;;7.80;;
16922;SDS011;8578;50.938;13.556;2022-12-20T12:41:12;19.00;;;8.47;;
16922;SDS011;8578;50.938;13.556;2022-12-20T12:43:44;22.40;;;10.07;;
16922;SDS011;8578;50.938;13.556;2022-12-20T12:46:15;30.53;;;14.20;;
16922;SDS011;8578;50.938;13.556;2022-12-20T12:48:44;22.67;;;10.13;;
16922;SDS011;8578;50.938;13.556;2022-12-20T12:51:14;19.90;;;9.67;;
16922;SDS011;8578;50.938;13.556;2022-12-20T12:53:42;20.17;;;9.07;;
16922;SDS011;8578;50.938;13.556;2022-12-20T12:59:38;15.90;;;8.87;;
16922;SDS011;8578;50.938;13.556;2022-12-20T13:07:53;24.33;;;9.90;;
16922;SDS011;8578;50.938;13.556;2022-12-20T13:13:11;21.73;;;9.63;;
16922;SDS011;8578;50.938;13.556;2022-12-20T13:15:45;19.23;;;8.67;;
16922;SDS011;8578;50.938;13.556;2022-12-20T13:18:19;20.90;;;8.90;;
16922;SDS011;8578;50.938;13.556;2022-12-20T13:23:31;18.87;;;8.47;;
16922;SDS011;8578;50.938;13.556;2022-12-20T13:25:59;18.33;;;8.60;;
16922;SDS011;8578;50.938;13.556;2022-12-20T13:28:42;18.93;;;8.80;;
16922;SDS011;8578;50.938;13.556;2022-12-20T13:31:29;20.20;;;8.07;;
16922;SDS011;8578;50.938;13.556;2022-12-20T13:33:58;18.37;;;9.33;;
16922;SDS011;8578;50.938;13.556;2022-12-20T13:36:31;20.53;;;9.10;;
16922;SDS011;8578;50.938;13.556;2022-12-20T13:39:01;21.43;;;9.20;;
16922;SDS011;8578;50.938;13.556;2022-12-20T13:41:39;19.57;;;9.47;;
16922;SDS011;8578;50.938;13.556;2022-12-20T13:44:09;21.13;;;9.17;;
16922;SDS011;8578;50.938;13.556;2022-12-20T13:46:46;19.73;;;9.67;;
16922;SDS011;8578;50.938;13.556;2022-12-20T13:49:14;20.40;;;9.43;;
16922;SDS011;8578;50.938;13.556;2022-12-20T13:51:44;22.93;;;11.33;;
16922;SDS011;8578;50.938;13.556;2022-12-20T13:54:14;29.43;;;14.17;;
16922;SDS011;8578;50.938;13.556;2022-12-20T13:56:51;19.27;;;8.73;;
16922;SDS011;8578;50.938;13.556;2022-12-20T13:59:21;20.50;;;9.90;;
16922;SDS011;8578;50.938;13.556;2022-12-20T14:01:51;18.50;;;9.00;;
16922;SDS011;8578;50.938;13.556;2022-12-20T14:04:20;16.67;;;7.57;;
16922;SDS011;8578;50.938;13.556;2022-12-20T14:06:49;18.00;;;8.67;;
16922;SDS011;8578;50.938;13.556;2022-12-20T14:09:26;15.30;;;7.00;;
16922;SDS011;8578;50.938;13.556;2022-12-20T14:12:01;20.20;;;8.67;;
16922;SDS011;8578;50.938;13.556;2022-12-20T14:14:28;17.57;;;7.90;;
16922;SDS011;8578;50.938;13.556;2022-12-20T14:16:55;15.53;;;7.90;;
16922;SDS011;8578;50.938;13.556;2022-12-20T14:19:40;15.90;;;7.63;;
16922;SDS011;8578;50.938;13.556;2022-12-20T14:22:07;17.13;;;7.80;;
16922;SDS011;8578;50.938;13.556;2022-12-20T14:24:37;16.10;;;7.90;;
16922;SDS011;8578;50.938;13.556;2022-12-20T14:27:05;19.63;;;8.57;;
16922;SDS011;8578;50.938;13.556;2022-12-20T14:29:32;20.37;;;8.67;;
16922;SDS011;8578;50.938;13.556;2022-12-20T14:32:00;17.63;;;8.20;;
16922;SDS011;8578;50.938;13.556;2022-12-20T14:34:28;16.83;;;8.10;;
16922;SDS011;8578;50.938;13.556;2022-12-20T14:39:55;20.10;;;8.23;;
16922;SDS011;8578;50.938;13.556;2022-12-20T14:42:22;18.50;;;8.10;;
16922;SDS011;8578;50.938;13.556;2022-12-20T14:45:00;20.43;;;8.87;;
16922;SDS011;8578;50.938;13.556;2022-12-20T14:47:28;15.37;;;7.23;;
16922;SDS011;8578;50.938;13.556;2022-12-20T14:49:56;17.87;;;7.80;;
16922;SDS011;8578;50.938;13.556;2022-12-20T14:52:26;18.37;;;8.27;;
16922;SDS011;8578;50.938;13.556;2022-12-20T14:54:58;17.10;;;7.93;;
16922;SDS011;8578;50.938;13.556;2022-12-20T14:57:42;18.20;;;8.10;;
16922;SDS011;8578;50.938;13.556;2022-12-20T15:00:12;17.90;;;8.03;;
16922;SDS011;8578;50.938;13.556;2022-12-20T15:02:41;16.80;;;7.63;;
16922;SDS011;8578;50.938;13.556;2022-12-20T15:07:52;18.00;;;8.17;;
16922;SDS011;8578;50.938;13.556;2022-12-20T15:10:21;18.30;;;7.60;;
16922;SDS011;8578;50.938;13.556;2022-12-20T15:12:49;16.70;;;7.27;;
16922;SDS011;8578;50.938;13.556;2022-12-20T15:15:16;15.97;;;7.87;;
16922;SDS011;8578;50.938;13.556;2022-12-20T15:17:58;17.30;;;7.67;;
16922;SDS011;8578;50.938;13.556;2022-12-20T15:20:25;17.77;;;7.70;;